Time;durP1;ratioP1;P1;durP2;ratioP2;P2;SDS_P1;SDS_P2;PMS_P1;PMS_P2;Temp;Humidity;BMP_temperature;BMP_pressure;BME280_temperature;BME280_humidity;BME280_pressure;Samples;Min_cycle;Max_cycle;Signal;HPM_P1;HPM_P2
2022/11/29 05:01:30;;;;;;;31.63;18.03;;;8.30;99.90;;;;;;5579157;23;21082;-74
2022/11/29 05:04:02;;;;;;;39.03;19.60;;;8.30;99.90;;;;;;4987062;28;20455;-74
2022/11/29 05:06:37;;;;;;;34.30;19.10;;;8.30;99.90;;;;;;4986738;28;20471;-75
2022/11/29 05:09:16;;;;;;;35.80;19.07;;;8.30;99.90;;;;;;4987680;28;20443;-75
2022/11/29 05:11:54;;;;;;;39.83;18.87;;;8.30;99.90;;;;;;4987089;28;20479;-75
2022/11/29 05:14:34;;;;;;;37.10;18.90;;;8.30;99.90;;;;;;4987443;28;20459;-75
2022/11/29 05:17:19;;;;;;;51.80;22.10;;;8.30;99.90;;;;;;4987537;28;20455;-74
2022/11/29 05:20:00;;;;;;;41.60;21.90;;;8.30;99.90;;;;;;4978037;28;20865;-74
2022/11/29 05:22:34;;;;;;;47.60;21.33;;;8.30;99.90;;;;;;4977649;28;20484;-74
2022/11/29 05:25:15;;;;;;;36.60;21.10;;;8.30;99.90;;;;;;4987831;28;20947;-74
2022/11/29 05:27:47;;;;;;;45.60;22.67;;;8.30;99.90;;;;;;4987477;28;20459;-66
2022/11/29 05:30:15;;;;;;;39.83;21.10;;;8.30;99.90;;;;;;4987280;28;20444;-67
2022/11/29 05:32:55;;;;;;;52.67;23.73;;;8.30;99.90;;;;;;4986377;28;20463;-67
2022/11/29 05:35:46;;;;;;;38.53;20.63;;;8.30;99.90;;;;;;4986440;28;20444;-67
2022/11/29 05:38:26;;;;;;;45.20;21.70;;;8.30;99.90;;;;;;4987087;28;20506;-67
2022/11/29 05:41:05;;;;;;;38.13;20.70;;;8.30;99.90;;;;;;4987527;28;20487;-68
2022/11/29 05:43:48;;;;;;;52.77;23.90;;;8.30;99.90;;;;;;4986643;28;20455;-67
2022/11/29 05:46:21;;;;;;;44.53;23.47;;;8.20;99.90;;;;;;4986990;28;20459;-67
2022/11/29 05:49:13;;;;;;;47.90;24.37;;;8.20;99.90;;;;;;4988017;28;20455;-78
2022/11/29 05:51:46;;;;;;;47.60;25.10;;;8.20;99.90;;;;;;4988639;28;20860;-80
2022/11/29 05:54:24;;;;;;;56.83;25.80;;;8.30;99.90;;;;;;4988684;28;20448;-78
2022/11/29 05:57:03;;;;;;;51.83;24.90;;;8.30;99.90;;;;;;4969293;28;20444;-78
2022/11/29 05:59:31;;;;;;;47.72;24.83;;;8.30;99.90;;;;;;4968802;28;20460;-78
2022/11/29 06:02:05;;;;;;;65.73;25.50;;;8.40;99.90;;;;;;4968397;28;20680;-79
2022/11/29 06:04:56;;;;;;;41.97;22.40;;;8.40;99.90;;;;;;4968695;28;20464;-80
2022/11/29 06:07:27;;;;;;;60.50;25.23;;;8.30;99.90;;;;;;4969488;28;20460;-78
2022/11/29 06:10:00;;;;;;;46.07;21.90;;;8.30;99.90;;;;;;4969583;28;20456;-79
2022/11/29 06:12:29;;;;;;;42.77;21.90;;;8.30;99.90;;;;;;4968542;28;20564;-79
2022/11/29 06:15:22;;;;;;;40.53;21.73;;;8.30;99.90;;;;;;4968713;28;20565;-78
2022/11/29 06:18:09;;;;;;;45.10;21.97;;;8.30;99.90;;;;;;4937412;28;20908;-77
2022/11/29 06:20:55;;;;;;;61.27;24.37;;;8.30;99.90;;;;;;4968790;28;20544;-78
2022/11/29 06:23:40;;;;;;;46.13;23.90;;;8.30;99.90;;;;;;4968316;28;20445;-77
2022/11/29 06:26:19;;;;;;;68.30;23.63;;;8.40;99.90;;;;;;4969498;28;20452;-79
2022/11/29 06:29:00;;;;;;;40.70;21.47;;;8.40;99.90;;;;;;4973931;28;20480;-79
2022/11/29 06:31:31;;;;;;;53.47;22.77;;;8.40;99.90;;;;;;4987974;28;20491;-77
2022/11/29 06:34:03;;;;;;;55.33;23.20;;;8.40;99.90;;;;;;4987189;28;20455;-78
2022/11/29 06:36:39;;;;;;;48.23;21.00;;;8.40;99.90;;;;;;4988379;28;20463;-78
2022/11/29 06:39:08;;;;;;;51.77;21.20;;;8.40;99.90;;;;;;4987621;28;20499;-77
2022/11/29 06:41:36;;;;;;;70.43;22.00;;;8.40;99.90;;;;;;4987999;28;20483;-76
2022/11/29 06:44:03;;;;;;;60.10;21.53;;;8.30;99.90;;;;;;4988591;28;20467;-78
2022/11/29 06:46:40;;;;;;;45.23;20.83;;;8.30;99.90;;;;;;4987036;28;20499;-78
2022/11/29 06:49:12;;;;;;;38.63;18.90;;;8.30;99.90;;;;;;4987975;28;20459;-78
2022/11/29 06:51:51;;;;;;;38.83;19.10;;;8.40;99.90;;;;;;4987127;28;21326;-79
2022/11/29 06:54:37;;;;;;;43.77;19.77;;;8.40;99.90;;;;;;4987917;28;20491;-78
2022/11/29 06:57:11;;;;;;;42.93;20.00;;;8.40;99.90;;;;;;4988163;28;20463;-78
2022/11/29 06:59:51;;;;;;;67.97;19.47;;;8.40;99.90;;;;;;4987637;28;20492;-80
2022/11/29 07:02:34;;;;;;;39.10;18.23;;;8.40;99.90;;;;;;4987150;28;21011;-78
2022/11/29 07:05:13;;;;;;;54.43;21.07;;;8.40;99.90;;;;;;4987991;28;20455;-78
2022/11/29 07:07:42;;;;;;;46.80;19.30;;;8.50;99.90;;;;;;4988349;28;20530;-77
2022/11/29 07:10:15;;;;;;;37.97;17.43;;;8.40;99.90;;;;;;4987929;28;20452;-78
2022/11/29 07:12:43;;;;;;;40.13;17.83;;;8.40;99.90;;;;;;4987628;28;20975;-77
2022/11/29 07:15:13;;;;;;;56.30;19.30;;;8.40;99.90;;;;;;4988395;28;20463;-77
2022/11/29 07:17:52;;;;;;;62.97;20.17;;;8.40;99.90;;;;;;4987660;28;20466;-77
2022/11/29 07:20:29;;;;;;;44.77;18.17;;;8.40;99.90;;;;;;4987731;28;20495;-77
2022/11/29 07:23:06;;;;;;;41.50;17.53;;;8.40;99.90;;;;;;4987032;28;20459;-76
2022/11/29 07:25:40;;;;;;;44.30;19.37;;;8.40;99.90;;;;;;4986412;28;21219;-77
2022/11/29 07:28:19;;;;;;;38.23;16.80;;;8.30;99.90;;;;;;4986980;28;20440;-77
2022/11/29 07:30:53;;;;;;;46.87;17.83;;;8.30;99.90;;;;;;4986873;28;20506;-77
2022/11/29 07:33:25;;;;;;;36.97;16.97;;;8.40;99.90;;;;;;4985645;28;20967;-78
2022/11/29 07:36:01;;;;;;;38.73;17.17;;;8.40;99.90;;;;;;4986482;28;20463;-77
2022/11/29 07:38:36;;;;;;;43.00;17.87;;;8.40;99.90;;;;;;4987046;28;20474;-77
2022/11/29 07:41:11;;;;;;;43.10;16.80;;;8.40;99.90;;;;;;4987115;28;20493;-77
2022/11/29 07:43:47;;;;;;;41.40;17.47;;;8.40;99.90;;;;;;4987076;28;20440;-77
2022/11/29 07:46:14;;;;;;;38.10;17.23;;;8.30;99.90;;;;;;4987809;28;20447;-78
2022/11/29 07:48:40;;;;;;;38.00;15.40;;;8.40;99.90;;;;;;4987729;28;20460;-78
2022/11/29 07:51:08;;;;;;;35.50;16.87;;;8.30;99.90;;;;;;4987701;28;20479;-77
2022/11/29 07:53:40;;;;;;;30.93;15.03;;;8.30;99.90;;;;;;4986688;28;20462;-77
2022/11/29 07:56:08;;;;;;;37.60;16.80;;;8.30;99.90;;;;;;4987277;28;20459;-77
2022/11/29 07:58:35;;;;;;;26.90;15.20;;;8.40;99.90;;;;;;4988060;28;20538;-78
2022/11/29 08:01:02;;;;;;;29.00;14.87;;;8.40;99.90;;;;;;4990769;28;20496;-77
2022/11/29 08:03:29;;;;;;;41.40;16.30;;;8.40;99.90;;;;;;4988941;28;20460;-79
2022/11/29 08:05:55;;;;;;;34.93;15.47;;;8.40;99.90;;;;;;4988073;28;20993;-77
2022/11/29 08:08:22;;;;;;;34.10;16.97;;;8.40;99.90;;;;;;4988347;28;20460;-78
2022/11/29 08:10:50;;;;;;;31.07;15.37;;;8.40;99.90;;;;;;4988663;28;20475;-78
2022/11/29 08:13:19;;;;;;;31.87;13.97;;;8.40;99.90;;;;;;4987949;28;20467;-77
2022/11/29 08:15:47;;;;;;;30.93;15.07;;;8.40;99.90;;;;;;4987398;28;20463;-78
2022/11/29 08:18:14;;;;;;;29.27;15.80;;;8.40;99.90;;;;;;4988254;28;20463;-77
2022/11/29 08:20:41;;;;;;;28.00;15.53;;;8.40;99.90;;;;;;4987887;28;20502;-79
2022/11/29 08:23:10;;;;;;;25.87;15.00;;;8.40;99.90;;;;;;4987438;28;20459;-79
2022/11/29 08:25:37;;;;;;;27.60;15.50;;;8.40;99.90;;;;;;4988521;28;20460;-78
2022/11/29 08:28:06;;;;;;;26.97;16.80;;;8.40;99.90;;;;;;4988414;28;20452;-77
2022/11/29 08:30:33;;;;;;;30.63;14.90;;;8.50;99.90;;;;;;4988399;28;20471;-78
2022/11/29 08:33:00;;;;;;;28.37;16.10;;;8.50;99.90;;;;;;4987317;28;21077;-77
2022/11/29 08:35:26;;;;;;;23.63;15.00;;;8.50;99.90;;;;;;4987848;28;20460;-79
2022/11/29 08:37:54;;;;;;;28.03;15.10;;;8.50;99.90;;;;;;4988208;28;20787;-78
2022/11/29 08:40:22;;;;;;;23.40;14.03;;;8.50;99.90;;;;;;4987697;28;21019;-77
2022/11/29 08:42:49;;;;;;;29.00;14.43;;;8.60;99.90;;;;;;4987223;28;20518;-78
2022/11/29 08:45:17;;;;;;;27.13;14.00;;;8.60;99.90;;;;;;4988342;28;20466;-78
2022/11/29 08:47:44;;;;;;;25.77;14.20;;;8.60;99.90;;;;;;4987837;28;20463;-78
2022/11/29 08:50:14;;;;;;;26.50;15.00;;;8.60;99.90;;;;;;4987814;28;20464;-78
2022/11/29 08:55:28;;;;;;;27.20;14.17;;;8.70;99.90;;;;;;4987877;28;20447;-79
2022/11/29 08:57:59;;;;;;;27.60;15.40;;;8.70;99.90;;;;;;4987602;28;20463;-78
2022/11/29 09:00:27;;;;;;;22.90;13.10;;;8.70;99.90;;;;;;4987367;28;20490;-79
2022/11/29 09:02:54;;;;;;;24.27;14.57;;;8.70;99.90;;;;;;4987015;28;21182;-79
2022/11/29 09:05:21;;;;;;;24.87;14.10;;;8.70;99.90;;;;;;4988023;28;20820;-76
2022/11/29 09:07:48;;;;;;;23.97;13.93;;;8.60;99.90;;;;;;4987669;28;20467;-78
2022/11/29 09:10:15;;;;;;;22.87;14.20;;;8.60;99.90;;;;;;4987102;28;20448;-78
2022/11/29 09:12:43;;;;;;;22.27;14.57;;;8.70;99.90;;;;;;4987056;28;20467;-78
2022/11/29 09:15:11;;;;;;;26.90;14.10;;;8.60;99.90;;;;;;4987431;28;20549;-78
2022/11/29 09:17:39;;;;;;;27.07;14.87;;;8.60;99.90;;;;;;4987651;28;20456;-77
2022/11/29 09:20:07;;;;;;;25.00;13.70;;;8.60;99.90;;;;;;4987056;28;20498;-78
2022/11/29 09:22:34;;;;;;;24.67;14.70;;;8.70;99.90;;;;;;4986698;28;20715;-77
2022/11/29 09:25:00;;;;;;;24.30;15.63;;;8.70;99.90;;;;;;4987354;28;20464;-78
2022/11/29 09:27:27;;;;;;;27.80;14.80;;;8.70;99.90;;;;;;4987071;28;21003;-78
2022/11/29 09:29:54;;;;;;;20.07;13.40;;;8.70;99.90;;;;;;4987585;28;20474;-77
2022/11/29 09:32:21;;;;;;;22.20;14.10;;;8.70;99.90;;;;;;4988422;28;20475;-78
2022/11/29 09:34:49;;;;;;;21.40;14.10;;;8.70;99.90;;;;;;4988979;28;20934;-78
2022/11/29 09:37:16;;;;;;;20.47;13.90;;;8.70;99.90;;;;;;4989245;28;20456;-78
2022/11/29 09:39:42;;;;;;;19.10;13.40;;;8.80;99.90;;;;;;4989171;28;21089;-77
2022/11/29 09:42:27;;;;;;;21.73;13.90;;;8.80;99.90;;;;;;4988239;28;20480;-77
2022/11/29 09:45:02;;;;;;;20.53;13.40;;;8.80;99.90;;;;;;4989258;28;20447;-78
2022/11/29 09:47:52;;;;;;;19.43;13.10;;;8.90;99.90;;;;;;4989219;28;20814;-77
2022/11/29 09:50:28;;;;;;;20.27;13.23;;;8.90;99.90;;;;;;4988509;28;20912;-78
2022/11/29 09:53:16;;;;;;;19.03;12.90;;;8.90;99.90;;;;;;4988384;28;20440;-78
2022/11/29 09:55:55;;;;;;;17.97;11.37;;;8.90;99.90;;;;;;4985998;28;21218;-84
2022/11/29 09:58:26;;;;;;;16.60;12.13;;;8.90;99.90;;;;;;4989541;28;20506;-78
2022/11/29 10:00:57;;;;;;;17.53;12.83;;;9.00;99.90;;;;;;4988952;28;20507;-83
2022/11/29 10:03:29;;;;;;;19.27;11.50;;;9.00;99.90;;;;;;4988465;28;20448;-78
2022/11/29 10:06:00;;;;;;;17.00;12.10;;;8.90;99.90;;;;;;4989139;28;20460;-79
2022/11/29 10:08:34;;;;;;;14.83;11.23;;;9.00;99.90;;;;;;4989036;28;20444;-78
2022/11/29 10:11:13;;;;;;;18.10;12.20;;;9.00;99.90;;;;;;4989096;28;20479;-85
2022/11/29 10:13:44;;;;;;;16.63;11.73;;;9.00;99.90;;;;;;4988541;28;21100;-78
2022/11/29 10:16:18;;;;;;;17.23;12.00;;;9.00;99.90;;;;;;4988732;28;20464;-80
2022/11/29 10:18:48;;;;;;;14.30;10.93;;;9.10;99.90;;;;;;4988943;28;20439;-78
2022/11/29 10:21:21;;;;;;;15.03;10.27;;;9.00;99.90;;;;;;4988396;28;21033;-79
2022/11/29 10:23:50;;;;;;;16.50;11.27;;;9.10;99.90;;;;;;4988023;28;20443;-83
2022/11/29 10:26:17;;;;;;;19.20;12.10;;;9.00;99.90;;;;;;4989137;28;20494;-77
2022/11/29 10:28:47;;;;;;;21.57;13.40;;;9.10;99.90;;;;;;4989081;28;20455;-79
2022/11/29 10:31:20;;;;;;;17.37;10.40;;;9.10;99.90;;;;;;4988841;28;20480;-78
2022/11/29 10:33:47;;;;;;;11.30;8.43;;;9.10;99.90;;;;;;4988217;28;20451;-79
2022/11/29 10:36:25;;;;;;;14.23;8.97;;;9.10;99.90;;;;;;4988849;28;20464;-80
2022/11/29 10:38:57;;;;;;;12.37;8.47;;;9.10;99.90;;;;;;4988740;28;20498;-79
2022/11/29 10:41:25;;;;;;;11.67;9.07;;;9.10;99.90;;;;;;4988436;28;20500;-85
2022/11/29 10:43:55;;;;;;;10.63;8.53;;;9.10;99.90;;;;;;4988090;28;20514;-81
2022/11/29 10:46:27;;;;;;;11.17;8.13;;;9.10;99.90;;;;;;4988802;28;20462;-81
2022/11/29 10:48:55;;;;;;;10.50;8.17;;;9.10;99.90;;;;;;4988531;28;20463;-79
2022/11/29 10:51:24;;;;;;;10.43;8.17;;;9.00;99.90;;;;;;4988117;28;20467;-80
2022/11/29 10:53:53;;;;;;;10.80;8.43;;;9.00;99.90;;;;;;4987607;28;20461;-78
2022/11/29 10:56:23;;;;;;;10.30;8.27;;;9.10;99.90;;;;;;4988697;28;20459;-77
2022/11/29 10:59:01;;;;;;;12.73;9.07;;;9.00;99.90;;;;;;4988776;28;20464;-77
2022/11/29 11:01:30;;;;;;;15.17;10.87;;;9.00;99.90;;;;;;4988500;28;20562;-79
2022/11/29 11:03:59;;;;;;;14.80;10.60;;;9.00;99.90;;;;;;4988128;28;20460;-80
2022/11/29 11:06:42;;;;;;;17.60;10.00;;;9.10;99.90;;;;;;4989380;28;20452;-77
2022/11/29 11:09:17;;;;;;;13.97;10.27;;;9.10;99.90;;;;;;4989837;28;20440;-82
2022/11/29 11:11:51;;;;;;;14.47;9.93;;;9.10;99.90;;;;;;4988479;28;20844;-79
2022/11/29 11:14:21;;;;;;;14.70;9.80;;;9.20;99.90;;;;;;4988874;28;20454;-79
2022/11/29 11:16:48;;;;;;;14.20;9.60;;;9.20;99.90;;;;;;4988171;28;20844;-77
2022/11/29 11:19:27;;;;;;;10.53;8.47;;;9.20;99.90;;;;;;4988336;28;20467;-84
2022/11/29 11:21:56;;;;;;;15.03;9.10;;;9.20;99.90;;;;;;4987672;28;20479;-78
2022/11/29 11:24:25;;;;;;;11.30;8.37;;;9.20;99.90;;;;;;4988712;28;20463;-80
2022/11/29 11:26:52;;;;;;;11.63;8.40;;;9.20;99.90;;;;;;4989068;28;20896;-79
2022/11/29 11:29:21;;;;;;;12.43;8.57;;;9.20;99.90;;;;;;4988478;28;20463;-78
2022/11/29 11:31:53;;;;;;;13.90;8.93;;;9.30;99.90;;;;;;4985936;28;20468;-81
2022/11/29 11:34:30;;;;;;;12.53;9.17;;;9.20;99.90;;;;;;4988876;28;20447;-78
2022/11/29 11:39:52;;;;;;;12.90;9.50;;;9.10;99.90;;;;;;5084533;28;20599;-77
2022/11/29 11:42:36;;;;;;;10.77;8.73;;;9.00;99.90;;;;;;5083920;28;20489;-78
2022/11/29 11:45:20;;;;;;;12.40;9.17;;;9.00;99.90;;;;;;5084425;28;20428;-78
2022/11/29 11:47:49;;;;;;;9.80;8.17;;;8.90;99.90;;;;;;5084513;28;20573;-80
2022/11/29 11:50:24;;;;;;;9.57;8.10;;;8.90;99.90;;;;;;5084402;28;20455;-84
2022/11/29 11:52:53;;;;;;;11.33;8.03;;;9.00;99.90;;;;;;5083797;28;20442;-78
2022/11/29 11:55:32;;;;;;;9.60;8.47;;;9.00;99.90;;;;;;5083988;28;20965;-78
2022/11/29 11:58:05;;;;;;;12.10;9.63;;;9.00;99.90;;;;;;5084093;28;20578;-80
2022/11/29 12:00:41;;;;;;;11.10;8.87;;;9.00;99.90;;;;;;5084128;28;20466;-78
2022/11/29 12:03:24;;;;;;;10.20;9.10;;;9.10;99.90;;;;;;5083805;28;20451;-78
2022/11/29 12:05:54;;;;;;;10.17;8.60;;;9.10;99.90;;;;;;5084290;28;20459;-80
2022/11/29 12:08:23;;;;;;;11.33;8.50;;;9.10;99.90;;;;;;5083955;28;20447;-81
2022/11/29 12:10:56;;;;;;;10.73;8.07;;;9.20;99.90;;;;;;5084244;28;20986;-77
2022/11/29 12:13:26;;;;;;;8.87;7.80;;;9.20;99.90;;;;;;5083513;28;20438;-78
2022/11/29 12:15:56;;;;;;;9.40;7.50;;;9.20;99.90;;;;;;5083828;28;20451;-80
2022/11/29 12:18:30;;;;;;;10.87;7.47;;;9.20;99.90;;;;;;5084278;28;20487;-77
2022/11/29 12:21:01;;;;;;;9.43;6.77;;;9.30;99.90;;;;;;5083922;28;20824;-77
2022/11/29 12:23:35;;;;;;;10.07;7.57;;;9.30;99.90;;;;;;5083751;28;20428;-81
2022/11/29 12:26:10;;;;;;;7.90;6.73;;;9.30;99.90;;;;;;5084419;28;20467;-81
2022/11/29 12:28:40;;;;;;;8.10;7.30;;;9.30;99.90;;;;;;5084986;28;20432;-79
2022/11/29 12:31:22;;;;;;;8.67;7.03;;;9.30;99.90;;;;;;5085641;28;20459;-78
2022/11/29 12:33:57;;;;;;;8.93;7.07;;;9.30;99.90;;;;;;5084804;28;21012;-78
2022/11/29 12:36:36;;;;;;;8.90;7.10;;;9.30;99.90;;;;;;5085276;28;20438;-82
2022/11/29 12:39:20;;;;;;;8.90;7.00;;;9.30;99.90;;;;;;5085630;28;20490;-79
2022/11/29 12:41:54;;;;;;;9.20;7.43;;;9.40;99.90;;;;;;5084862;28;20479;-78
2022/11/29 12:44:31;;;;;;;9.87;7.70;;;9.40;99.90;;;;;;5084788;28;20446;-85
2022/11/29 12:47:07;;;;;;;10.20;8.00;;;9.40;99.90;;;;;;5084561;28;20432;-81
2022/11/29 12:49:43;;;;;;;10.40;7.17;;;9.40;99.90;;;;;;5079628;28;20444;-78
2022/11/29 12:52:18;;;;;;;8.37;6.80;;;9.40;99.90;;;;;;5071952;28;20906;-80
2022/11/29 12:54:57;;;;;;;7.50;5.90;;;9.30;99.90;;;;;;5072619;28;20448;-77
2022/11/29 12:57:32;;;;;;;8.07;6.20;;;9.40;99.90;;;;;;5072663;28;20460;-81
2022/11/29 13:00:06;;;;;;;9.60;7.20;;;9.40;99.90;;;;;;5071140;28;20513;-78
2022/11/29 13:02:44;;;;;;;9.47;7.23;;;9.40;99.90;;;;;;5071785;28;20476;-81
2022/11/29 13:05:19;;;;;;;6.83;6.13;;;9.40;99.90;;;;;;5071519;28;20447;-81
2022/11/29 13:08:01;;;;;;;11.67;7.90;;;9.40;99.90;;;;;;5071737;28;20497;-78
2022/11/29 13:10:42;;;;;;;8.37;6.47;;;9.40;99.90;;;;;;5071516;28;21093;-80
2022/11/29 13:13:24;;;;;;;7.90;6.60;;;9.40;99.90;;;;;;5068008;28;20452;-75
2022/11/29 13:15:58;;;;;;;6.90;6.20;;;9.40;99.90;;;;;;5070375;28;20439;-77
2022/11/29 13:18:34;;;;;;;8.03;7.23;;;9.30;99.90;;;;;;5070403;28;20491;-78
2022/11/29 13:21:07;;;;;;;9.37;6.30;;;9.40;99.90;;;;;;5069477;28;20914;-78
2022/11/29 13:23:41;;;;;;;9.67;7.00;;;9.40;99.90;;;;;;5069249;28;20436;-78
2022/11/29 13:26:11;;;;;;;9.20;6.37;;;9.40;99.90;;;;;;5069665;28;20433;-75
2022/11/29 13:28:42;;;;;;;7.17;6.40;;;9.30;99.90;;;;;;5069643;28;20452;-77
2022/11/29 13:31:14;;;;;;;9.50;6.77;;;9.40;99.90;;;;;;5070654;28;20477;-78
2022/11/29 13:33:57;;;;;;;7.40;6.60;;;9.40;99.90;;;;;;5069765;28;20456;-78
2022/11/29 13:36:33;;;;;;;10.00;7.40;;;9.40;99.90;;;;;;5069396;28;20479;-75
2022/11/29 13:39:11;;;;;;;8.23;6.50;;;9.40;99.90;;;;;;5069579;28;20495;-77
2022/11/29 13:41:44;;;;;;;8.33;6.50;;;9.30;99.90;;;;;;5069674;28;20475;-77
2022/11/29 13:44:26;;;;;;;9.20;6.60;;;9.30;99.90;;;;;;5069611;28;20790;-80
2022/11/29 13:47:02;;;;;;;10.57;7.30;;;9.30;99.90;;;;;;5070078;28;20451;-79
2022/11/29 13:49:52;;;;;;;9.53;6.80;;;9.40;99.90;;;;;;5069347;28;21064;-77
2022/11/29 13:52:34;;;;;;;12.23;9.40;;;9.30;99.90;;;;;;5068682;28;20476;-79
2022/11/29 13:55:21;;;;;;;9.70;7.93;;;9.30;99.90;;;;;;5069878;28;20452;-78
2022/11/29 13:57:51;;;;;;;24.80;13.50;;;9.30;99.90;;;;;;5069763;28;20455;-79
2022/11/29 14:00:31;;;;;;;27.40;15.33;;;9.30;99.90;;;;;;5069390;28;20479;-78
2022/11/29 14:03:35;;;;;;;13.17;9.20;;;9.30;99.90;;;;;;5068660;28;21205;-78
2022/11/29 14:06:14;;;;;;;17.00;10.87;;;9.30;99.90;;;;;;5070871;28;20468;-78
2022/11/29 14:09:04;;;;;;;16.23;11.47;;;9.30;99.90;;;;;;5070545;28;21007;-77
2022/11/29 14:11:37;;;;;;;15.53;10.17;;;9.30;99.90;;;;;;5070353;28;20476;-78
2022/11/29 14:14:08;;;;;;;18.07;11.60;;;9.30;99.90;;;;;;5070451;28;20437;-78
2022/11/29 14:16:39;;;;;;;10.67;9.20;;;9.30;99.90;;;;;;5069046;28;20443;-79
2022/11/29 14:19:21;;;;;;;12.57;9.63;;;9.30;99.90;;;;;;5070818;28;20487;-77
2022/11/29 14:22:18;;;;;;;11.00;8.83;;;9.30;99.90;;;;;;5070059;28;20503;-77
2022/11/29 14:25:21;;;;;;;10.20;7.90;;;9.30;99.90;;;;;;5071345;28;20442;-79
2022/11/29 14:28:00;;;;;;;10.77;7.70;;;9.20;99.90;;;;;;5070797;28;20464;-78
2022/11/29 14:30:39;;;;;;;9.83;7.27;;;9.20;99.90;;;;;;5071712;28;20932;-78
2022/11/29 14:33:17;;;;;;;11.83;8.03;;;9.20;99.90;;;;;;5070750;28;20448;-80
2022/11/29 14:35:56;;;;;;;9.40;7.97;;;9.30;99.90;;;;;;5080767;28;20447;-76
2022/11/29 14:38:29;;;;;;;9.37;8.13;;;9.20;99.90;;;;;;5080139;28;20464;-76
2022/11/29 14:41:02;;;;;;;10.37;8.47;;;9.20;99.90;;;;;;5074243;28;21259;-75
2022/11/29 14:43:32;;;;;;;9.47;8.47;;;9.20;99.90;;;;;;5069122;28;20446;-78
2022/11/29 14:46:08;;;;;;;10.27;8.30;;;9.20;99.90;;;;;;5069790;28;20924;-78
2022/11/29 14:48:36;;;;;;;11.73;8.57;;;9.30;99.90;;;;;;5070945;28;20450;-80
2022/11/29 14:51:11;;;;;;;9.73;8.30;;;9.20;99.90;;;;;;5068475;28;20479;-79
2022/11/29 14:53:40;;;;;;;13.77;8.43;;;9.30;99.90;;;;;;5069429;28;20457;-80
2022/11/29 14:56:37;;;;;;;8.87;7.40;;;9.30;99.90;;;;;;5069723;28;20456;-79
2022/11/29 14:59:40;;;;;;;9.47;7.27;;;9.20;99.90;;;;;;5067206;28;20495;-80
2022/11/29 15:02:20;;;;;;;9.63;8.33;;;9.20;99.90;;;;;;5067029;28;20901;-78
2022/11/29 15:04:49;;;;;;;9.17;7.97;;;9.20;99.90;;;;;;5069018;28;20432;-77
2022/11/29 15:07:26;;;;;;;9.83;8.00;;;9.20;99.90;;;;;;5068668;28;20440;-78
2022/11/29 15:09:59;;;;;;;10.67;8.60;;;9.20;99.90;;;;;;5069592;28;20463;-78
2022/11/29 15:12:28;;;;;;;9.57;8.33;;;9.20;99.90;;;;;;5069838;28;20474;-78
2022/11/29 15:15:04;;;;;;;10.30;8.53;;;9.20;99.90;;;;;;5068846;28;20531;-78
2022/11/29 15:17:38;;;;;;;9.20;8.20;;;9.20;99.90;;;;;;5065874;28;20815;-78
2022/11/29 15:20:41;;;;;;;11.87;9.77;;;9.20;99.90;;;;;;5068608;28;20482;-78
2022/11/29 15:23:13;;;;;;;18.43;13.17;;;9.20;99.90;;;;;;5057289;28;20823;-78
2022/11/29 15:25:48;;;;;;;9.13;8.00;;;9.20;99.90;;;;;;5068976;28;20452;-78
2022/11/29 15:28:21;;;;;;;14.00;9.77;;;9.20;99.90;;;;;;5068282;28;20805;-78
2022/11/29 15:30:49;;;;;;;12.63;8.63;;;9.10;99.90;;;;;;5067068;28;20468;-78
2022/11/29 15:33:20;;;;;;;30.67;21.33;;;9.10;99.90;;;;;;5068123;28;20523;-79
2022/11/29 15:35:49;;;;;;;15.20;11.50;;;9.10;99.90;;;;;;5069081;28;20440;-79
2022/11/29 15:38:18;;;;;;;13.60;10.63;;;9.10;99.90;;;;;;5068991;28;20464;-77
2022/11/29 15:40:51;;;;;;;19.73;14.90;;;9.10;99.90;;;;;;5068466;28;20503;-78
2022/11/29 15:43:22;;;;;;;12.50;9.17;;;9.10;99.90;;;;;;5068343;28;20484;-78
2022/11/29 15:45:50;;;;;;;12.33;10.17;;;9.20;99.90;;;;;;5068777;28;21327;-77
2022/11/29 15:48:21;;;;;;;14.73;10.23;;;9.10;99.90;;;;;;5068273;28;20451;-79
2022/11/29 15:51:02;;;;;;;17.27;10.57;;;9.10;99.90;;;;;;5068674;28;20468;-78
2022/11/29 15:53:34;;;;;;;14.80;10.20;;;9.10;99.90;;;;;;5068793;28;20459;-78
2022/11/29 15:56:05;;;;;;;13.60;10.50;;;9.10;99.90;;;;;;5069506;28;20452;-78
2022/11/29 15:58:33;;;;;;;11.10;9.40;;;9.10;99.90;;;;;;5069127;28;20448;-78
2022/11/29 16:01:01;;;;;;;12.50;9.70;;;9.10;99.90;;;;;;5069194;28;20537;-78
2022/11/29 16:03:31;;;;;;;12.43;9.63;;;9.10;99.90;;;;;;5066176;28;20956;-75
2022/11/29 16:06:05;;;;;;;13.47;10.07;;;9.10;99.90;;;;;;5053224;28;20510;-75
2022/11/29 16:08:36;;;;;;;12.30;10.17;;;9.00;99.90;;;;;;5044994;28;20456;-75
2022/11/29 16:11:06;;;;;;;14.30;10.50;;;9.00;99.90;;;;;;5044798;28;20881;-75
2022/11/29 16:13:36;;;;;;;15.47;10.60;;;9.00;99.90;;;;;;5043862;28;20905;-75
2022/11/29 16:16:11;;;;;;;15.20;11.40;;;9.00;99.90;;;;;;5044142;28;20838;-76
2022/11/29 16:18:40;;;;;;;14.47;10.40;;;9.00;99.90;;;;;;5045185;28;20448;-75
2022/11/29 16:21:20;;;;;;;18.00;11.63;;;8.90;99.90;;;;;;5045302;28;20522;-75
2022/11/29 16:23:47;;;;;;;20.77;12.53;;;8.90;99.90;;;;;;5045370;28;20433;-75
2022/11/29 16:26:18;;;;;;;16.23;10.97;;;8.90;99.90;;;;;;5048155;28;20455;-73
2022/11/29 16:28:47;;;;;;;19.23;11.87;;;8.90;99.90;;;;;;5048946;28;20514;-73
2022/11/29 16:31:16;;;;;;;19.57;13.40;;;8.90;99.90;;;;;;5048971;28;20469;-73
2022/11/29 16:33:43;;;;;;;18.40;13.10;;;8.80;99.90;;;;;;5047902;28;20445;-74
2022/11/29 16:36:14;;;;;;;21.37;13.80;;;8.80;99.90;;;;;;5048611;28;20471;-74
2022/11/29 16:38:45;;;;;;;19.60;13.83;;;8.80;99.90;;;;;;5048488;28;20465;-74
2022/11/29 16:41:24;;;;;;;24.43;14.47;;;8.70;99.90;;;;;;5048613;28;20473;-74
2022/11/29 16:43:54;;;;;;;28.17;15.17;;;8.70;99.90;;;;;;5048286;28;20440;-74
2022/11/29 16:46:38;;;;;;;23.07;15.30;;;8.70;99.90;;;;;;5048813;28;20444;-74
2022/11/29 16:49:32;;;;;;;25.90;15.33;;;8.70;99.90;;;;;;5048279;28;20937;-74
2022/11/29 16:51:59;;;;;;;27.00;16.30;;;8.70;99.90;;;;;;5047341;28;21437;-74
2022/11/29 16:54:27;;;;;;;27.50;16.03;;;8.60;99.90;;;;;;5047987;28;20459;-74
2022/11/29 16:56:56;;;;;;;31.47;17.73;;;8.60;99.90;;;;;;5048457;28;20510;-74
2022/11/29 16:59:25;;;;;;;30.37;17.40;;;8.60;99.90;;;;;;5048670;28;20492;-74
2022/11/29 17:01:52;;;;;;;31.20;17.77;;;8.60;99.90;;;;;;5047115;28;20835;-74
2022/11/29 17:04:19;;;;;;;33.13;17.43;;;8.60;99.90;;;;;;5048139;28;20526;-74
2022/11/29 17:06:45;;;;;;;31.23;17.63;;;8.50;99.90;;;;;;5048196;28;20449;-74
2022/11/29 17:09:20;;;;;;;32.50;18.20;;;8.60;99.90;;;;;;5047968;28;20819;-74
2022/11/29 17:11:47;;;;;;;28.53;16.80;;;8.60;99.90;;;;;;5047074;28;21041;-74
2022/11/29 17:14:15;;;;;;;37.57;18.07;;;8.60;99.90;;;;;;5047643;28;20456;-74
2022/11/29 17:16:42;;;;;;;30.70;18.53;;;8.60;99.90;;;;;;5046719;28;20457;-74
2022/11/29 17:19:12;;;;;;;37.23;19.77;;;8.50;99.90;;;;;;5047377;28;20453;-74
2022/11/29 17:21:38;;;;;;;32.13;18.00;;;8.50;99.90;;;;;;5046957;28;20534;-74
2022/11/29 17:24:06;;;;;;;35.10;17.90;;;8.50;99.90;;;;;;5047663;28;20860;-74
2022/11/29 17:26:33;;;;;;;33.60;20.37;;;8.50;99.90;;;;;;5047514;28;20964;-74
2022/11/29 17:28:59;;;;;;;32.27;17.90;;;8.50;99.90;;;;;;5047549;28;20453;-74
2022/11/29 17:31:28;;;;;;;35.80;18.10;;;8.60;99.90;;;;;;5047371;28;20473;-74
2022/11/29 17:33:55;;;;;;;33.20;17.37;;;8.50;99.90;;;;;;5046879;28;20480;-74
2022/11/29 17:36:22;;;;;;;35.47;18.90;;;8.50;99.90;;;;;;5047194;28;20452;-74
2022/11/29 17:38:49;;;;;;;37.87;19.73;;;8.50;99.90;;;;;;5047045;28;20844;-73
2022/11/29 17:41:17;;;;;;;33.83;18.53;;;8.50;99.90;;;;;;5046929;28;20996;-74
2022/11/29 17:43:44;;;;;;;35.70;18.60;;;8.50;99.90;;;;;;5046713;28;20535;-74
2022/11/29 17:46:13;;;;;;;38.00;19.40;;;8.50;99.90;;;;;;5046842;28;20456;-74
2022/11/29 17:48:44;;;;;;;34.23;18.33;;;8.50;99.90;;;;;;5045862;28;21174;-74
2022/11/29 17:51:11;;;;;;;35.70;19.90;;;8.50;99.90;;;;;;5046496;28;20472;-74
2022/11/29 17:53:37;;;;;;;34.33;18.57;;;8.40;99.90;;;;;;5046352;28;20464;-74
2022/11/29 17:56:05;;;;;;;32.53;18.00;;;8.40;99.90;;;;;;5046899;28;20476;-74
2022/11/29 17:58:32;;;;;;;33.50;18.30;;;8.50;99.90;;;;;;5047285;28;20453;-74
2022/11/29 18:01:04;;;;;;;39.23;21.00;;;8.50;99.90;;;;;;5047088;28;20500;-74
2022/11/29 18:03:31;;;;;;;36.77;19.43;;;8.50;99.90;;;;;;5046318;28;20452;-73
2022/11/29 18:06:00;;;;;;;34.20;18.70;;;8.40;99.90;;;;;;5046991;28;20452;-75
2022/11/29 18:08:27;;;;;;;33.33;19.30;;;8.40;99.90;;;;;;5046895;28;20453;-74
2022/11/29 18:11:03;;;;;;;33.50;19.87;;;8.40;99.90;;;;;;5046672;28;20526;-74
2022/11/29 18:13:30;;;;;;;31.10;17.77;;;8.40;99.90;;;;;;5045953;28;20912;-76
2022/11/29 18:16:03;;;;;;;39.50;19.80;;;8.40;99.90;;;;;;5045693;28;20453;-73
2022/11/29 18:18:30;;;;;;;36.40;21.13;;;8.40;99.90;;;;;;5046651;28;20815;-73